TimeCDT,TemperatureF,Dew PointF,Humidity,Sea Level PressureIn,VisibilityMPH,Wind Direction,Wind SpeedMPH,Gust SpeedMPH,PrecipitationIn,Events,Conditions,WindDirDegrees,DateUTC
12:51 AM,34.0,24.1,67,29.71,9.0,NE,16.1,25.3,0.00,Snow,Light Snow,40,2013-03-25 05:51:00
1:51 AM,33.1,24.1,70,29.72,10.0,NNE,16.1,26.5,0.00,,Overcast,30,2013-03-25 06:51:00
2:11 AM,33.8,24.8,70,29.69,10.0,NNE,18.4,-,N/A,,Overcast,30,2013-03-25 07:11:00
2:51 AM,33.1,23.0,66,29.72,10.0,NNE,19.6,23.0,N/A,,Overcast,20,2013-03-25 07:51:00
3:51 AM,33.1,23.0,66,29.71,10.0,NNE,19.6,27.6,N/A,,Overcast,30,2013-03-25 08:51:00
4:51 AM,33.1,24.1,70,29.73,6.0,NNE,15.0,26.5,0.00,Snow,Light Snow,20,2013-03-25 09:51:00
5:51 AM,32.0,25.0,75,29.74,4.0,North,12.7,-,0.00,Snow,Light Snow,360,2013-03-25 10:51:00
5:58 AM,32.0,24.8,75,29.71,7.0,North,12.7,-,0.00,Snow,Light Snow,10,2013-03-25 10:58:00
6:37 AM,33.8,24.8,70,29.72,10.0,North,19.6,26.5,0.00,Snow,Light Snow,10,2013-03-25 11:37:00
6:51 AM,33.1,24.1,70,29.75,10.0,North,18.4,-,0.00,,Overcast,10,2013-03-25 11:51:00
7:51 AM,34.0,25.0,70,29.77,10.0,North,16.1,24.2,N/A,,Overcast,10,2013-03-25 12:51:00
8:51 AM,34.0,25.0,70,29.80,10.0,North,18.4,28.8,N/A,,Overcast,10,2013-03-25 13:51:00
9:51 AM,35.1,26.1,70,29.82,10.0,North,17.3,27.6,N/A,,Overcast,360,2013-03-25 14:51:00
10:51 AM,36.0,25.0,64,29.85,10.0,North,18.4,26.5,0.00,Snow,Light Snow,10,2013-03-25 15:51:00
11:51 AM,36.0,26.1,67,29.86,10.0,North,20.7,25.3,0.00,Snow,Light Snow,10,2013-03-25 16:51:00
12:51 PM,37.0,27.0,67,29.87,10.0,North,19.6,26.5,0.00,Snow,Light Snow,360,2013-03-25 17:51:00
1:51 PM,37.9,25.0,60,29.89,10.0,North,24.2,32.2,0.00,,Overcast,10,2013-03-25 18:51:00
2:51 PM,37.0,25.0,62,29.91,10.0,North,20.7,31.1,0.00,,Overcast,360,2013-03-25 19:51:00
3:51 PM,36.0,23.0,59,29.94,10.0,North,25.3,31.1,N/A,,Overcast,360,2013-03-25 20:51:00
4:51 PM,36.0,21.9,57,29.97,10.0,North,18.4,27.6,N/A,,Overcast,10,2013-03-25 21:51:00
5:51 PM,35.6,21.2,56,29.96,10.0,North,17.3,25.3,N/A,,Overcast,360,2013-03-25 22:51:00
6:51 PM,34.0,23.0,64,30.03,10.0,NNW,16.1,26.5,N/A,,Overcast,330,2013-03-25 23:51:00
7:51 PM,34.0,21.0,59,30.05,10.0,North,15.0,-,0.00,Snow,Light Snow,350,2013-03-26 00:51:00
8:43 PM,33.8,23.0,65,30.04,10.0,NNW,15.0,-,0.00,Snow,Light Snow,330,2013-03-26 01:43:00
8:51 PM,33.1,23.0,66,30.08,10.0,NNW,10.4,-,0.00,Snow,Light Snow,330,2013-03-26 01:51:00
9:32 PM,33.8,23.0,65,30.05,10.0,NW,11.5,-,0.00,Snow,Light Snow,310,2013-03-26 02:32:00
9:51 PM,33.1,23.0,66,30.09,10.0,NW,11.5,-,0.00,Snow,Light Snow,310,2013-03-26 02:51:00
10:51 PM,34.0,23.0,64,30.09,10.0,NNW,10.4,-,0.00,,Overcast,330,2013-03-26 03:51:00
11:51 PM,34.0,21.9,61,30.10,10.0,NNW,11.5,-,N/A,,Overcast,340,2013-03-26 04:51:00